Terminal Aerodrome Forecast
Issued by NWS

Home | Current Version | Previous Version | Text Only | Print | Product List | Glossary On
Versions: 1 2 3 4 5 6 7 8 9 10 11 12 13
755
FTUS43 KBIS 251138
TAFMOT
TAF
KMOT 251138Z 2512/2612 22013G21KT P6SM SKC
     FM251600 21019G28KT P6SM SCT120 BKN250
     FM252100 24017G25KT P6SM SCT120 BKN250
     FM260000 32015G23KT P6SM VCTS OVC100CB
     FM260400 32014G21KT P6SM FEW200=

USA.gov is the U.S. government's official web portal to all federal, state and local government web resources and services.